Wetterdaten: Woche 03.06.24 - 09.06.24 (KW23)
Datum Zeit Temp. I. Temp. A. Feuchte I. Feuchte A. Luftdruck Regen Wind Richtung Sonnenschein Solar Taupunkt Windchill Windböen
03.06.2024 00:00 22,1 °C 14,7 °C 66 % 83 % 1018,5 hPa 0,0 l/m² 5,4 km/h (2 Bft) W-NW 0,00 h 0 W/m² 11,9 °C 14,4 °C 11,7 km/h (2 Bft)
03.06.2024 01:00 22,1 °C 14,2 °C 66 % 81 % 1018,5 hPa 0,0 l/m² 5,2 km/h (1 Bft) W-NW 0,00 h 0 W/m² 11,0 °C 13,9 °C 11,5 km/h (2 Bft)
03.06.2024 02:00 22,1 °C 13,8 °C 65 % 81 % 1017,9 hPa 0,0 l/m² 8,2 km/h (2 Bft) W-NW 0,00 h 0 W/m² 10,7 °C 12,7 °C 16,0 km/h (3 Bft)
03.06.2024 03:00 22,0 °C 13,2 °C 65 % 81 % 1017,8 hPa 0,2 l/m² 7,0 km/h (2 Bft) W-NW 0,00 h 0 W/m² 10,0 °C 12,5 °C 14,4 km/h (3 Bft)
03.06.2024 04:00 21,9 °C 12,7 °C 65 % 82 % 1017,8 hPa 0,0 l/m² 5,3 km/h (1 Bft) W-NW 0,00 h 0 W/m² 9,6 °C 12,4 °C 13,1 km/h (3 Bft)
03.06.2024 05:00 21,9 °C 12,5 °C 65 % 81 % 1017,9 hPa 0,0 l/m² 3,5 km/h (1 Bft) W-NW 0,00 h 13 W/m² 9,4 °C 12,4 °C 8,5 km/h (2 Bft)
03.06.2024 06:00 21,9 °C 12,6 °C 64 % 83 % 1018,1 hPa 0,0 l/m² 3,4 km/h (1 Bft) W 0,17 h 39 W/m² 9,8 °C 12,6 °C 8,5 km/h (2 Bft)
03.06.2024 07:00 21,8 °C 12,8 °C 63 % 82 % 1018,4 hPa 0,0 l/m² 4,7 km/h (1 Bft) W 1,00 h 87 W/m² 9,7 °C 12,6 °C 11,4 km/h (2 Bft)
03.06.2024 08:00 21,8 °C 13,2 °C 64 % 78 % 1018,5 hPa 0,0 l/m² 6,8 km/h (2 Bft) W 1,02 h 164 W/m² 9,5 °C 12,5 °C 14,7 km/h (3 Bft)
03.06.2024 09:00 21,8 °C 13,7 °C 64 % 76 % 1018,4 hPa 0,0 l/m² 7,8 km/h (2 Bft) W-NW 1,00 h 246 W/m² 9,6 °C 12,6 °C 16,3 km/h (3 Bft)
03.06.2024 10:00 22,0 °C 14,6 °C 63 % 74 % 1018,1 hPa 0,0 l/m² 8,9 km/h (2 Bft) W-NW 0,98 h 395 W/m² 10,0 °C 13,1 °C 17,0 km/h (3 Bft)
03.06.2024 11:00 22,2 °C 15,3 °C 63 % 71 % 1018,1 hPa 0,0 l/m² 8,9 km/h (2 Bft) W 1,00 h 506 W/m² 10,2 °C 13,9 °C 15,9 km/h (3 Bft)
03.06.2024 12:00 22,3 °C 15,5 °C 63 % 72 % 1017,9 hPa 0,0 l/m² 7,8 km/h (2 Bft) W 1,00 h 568 W/m² 10,4 °C 14,5 °C 14,4 km/h (3 Bft)
03.06.2024 13:00 22,6 °C 16,8 °C 62 % 70 % 1017,8 hPa 0,0 l/m² 6,4 km/h (2 Bft) W-NW 1,00 h 814 W/m² 11,2 °C 16,3 °C 12,0 km/h (2 Bft)
03.06.2024 14:00 22,7 °C 17,7 °C 62 % 68 % 1017,5 hPa 0,0 l/m² 5,1 km/h (1 Bft) W-SW 1,00 h 775 W/m² 11,6 °C 17,5 °C 10,5 km/h (2 Bft)
03.06.2024 15:00 22,6 °C 18,1 °C 62 % 68 % 1017,2 hPa 0,0 l/m² 6,2 km/h (2 Bft) N-NW 1,02 h 425 W/m² 12,1 °C 17,7 °C 11,5 km/h (2 Bft)
03.06.2024 16:00 22,5 °C 17,7 °C 62 % 70 % 1017,1 hPa 0,0 l/m² 9,0 km/h (2 Bft) W-NW 0,98 h 427 W/m² 12,2 °C 16,6 °C 15,6 km/h (3 Bft)
03.06.2024 17:00 22,4 °C 17,7 °C 59 % 70 % 1016,9 hPa 0,0 l/m² 10,0 km/h (2 Bft) NW 1,00 h 445 W/m² 12,2 °C 16,2 °C 16,3 km/h (3 Bft)
03.06.2024 18:00 22,3 °C 17,0 °C 58 % 71 % 1016,8 hPa 0,0 l/m² 9,7 km/h (2 Bft) W-NW 1,02 h 208 W/m² 11,7 °C 15,4 °C 17,5 km/h (3 Bft)
03.06.2024 19:00 22,3 °C 15,7 °C 56 % 72 % 1016,9 hPa 0,0 l/m² 10,3 km/h (2 Bft) NW 1,00 h 92 W/m² 10,7 °C 13,8 °C 18,4 km/h (3 Bft)
03.06.2024 20:00 22,2 °C 14,7 °C 55 % 75 % 1016,9 hPa 0,0 l/m² 4,7 km/h (1 Bft) W-NW 0,10 h 28 W/m² 10,2 °C 14,5 °C 9,7 km/h (2 Bft)
03.06.2024 21:00 22,2 °C 13,7 °C 58 % 81 % 1017,1 hPa 0,0 l/m² 2,8 km/h (1 Bft) SW 0,00 h 5 W/m² 10,4 °C 13,7 °C 5,1 km/h (1 Bft)
03.06.2024 22:00 22,1 °C 12,7 °C 60 % 85 % 1017,2 hPa 0,0 l/m² 1,5 km/h (1 Bft) SW 0,00 h 0 W/m² 10,2 °C 12,7 °C 2,9 km/h (1 Bft)
03.06.2024 23:00 21,9 °C 11,3 °C 60 % 87 % 1017,2 hPa 0,0 l/m² 0,5 km/h (0 Bft) W-SW 0,00 h 0 W/m² 9,2 °C 11,3 °C 1,2 km/h (1 Bft)
04.06.2024 00:00 21,8 °C 11,5 °C 61 % 91 % 1017,1 hPa 0,0 l/m² 0,0 km/h (0 Bft) W-SW 0,00 h 0 W/m² 10,0 °C 11,5 °C 0,1 km/h (0 Bft)
04.06.2024 01:00 21,8 °C 11,3 °C 61 % 92 % 1016,8 hPa 0,0 l/m² 0,2 km/h (0 Bft) W-SW 0,00 h 0 W/m² 10,0 °C 11,3 °C 0,3 km/h (0 Bft)
04.06.2024 02:00 21,7 °C 11,3 °C 61 % 91 % 1016,6 hPa 0,0 l/m² 0,0 km/h (0 Bft) W-SW 0,00 h 0 W/m² 9,9 °C 11,3 °C 0,0 km/h (0 Bft)
04.06.2024 03:00 21,7 °C 11,3 °C 61 % 91 % 1016,4 hPa 0,0 l/m² 0,0 km/h (0 Bft) W-SW 0,00 h 0 W/m² 9,9 °C 11,3 °C 0,0 km/h (0 Bft)
04.06.2024 04:00 21,7 °C 11,4 °C 61 % 91 % 1016,3 hPa 0,0 l/m² 0,0 km/h (0 Bft) W-SW 0,00 h 0 W/m² 10,0 °C 11,4 °C 0,3 km/h (0 Bft)
04.06.2024 05:00 21,7 °C 11,4 °C 62 % 91 % 1016,3 hPa 0,0 l/m² 1,5 km/h (1 Bft) S-SW 0,00 h 20 W/m² 10,0 °C 11,4 °C 2,6 km/h (1 Bft)
04.06.2024 06:00 21,6 °C 12,0 °C 62 % 90 % 1016,2 hPa 0,0 l/m² 2,7 km/h (1 Bft) S-SW 0,57 h 58 W/m² 10,5 °C 12,0 °C 4,4 km/h (1 Bft)
04.06.2024 07:00 21,6 °C 13,0 °C 62 % 88 % 1016,1 hPa 0,0 l/m² 3,2 km/h (1 Bft) S-SW 1,00 h 123 W/m² 11,1 °C 13,0 °C 5,3 km/h (1 Bft)
04.06.2024 08:00 21,7 °C 14,4 °C 62 % 84 % 1016,0 hPa 0,0 l/m² 1,6 km/h (1 Bft) SW 1,00 h 217 W/m² 11,8 °C 14,4 °C 3,5 km/h (1 Bft)
04.06.2024 09:00 21,8 °C 15,7 °C 61 % 78 % 1015,9 hPa 0,0 l/m² 1,6 km/h (1 Bft) SW 0,98 h 339 W/m² 11,8 °C 15,7 °C 3,6 km/h (1 Bft)
04.06.2024 10:00 21,9 °C 16,8 °C 61 % 71 % 1015,6 hPa 0,0 l/m² 3,7 km/h (1 Bft) S-SW 1,00 h 441 W/m² 11,5 °C 16,8 °C 6,3 km/h (2 Bft)
04.06.2024 11:00 21,9 °C 16,9 °C 61 % 70 % 1015,3 hPa 0,0 l/m² 3,0 km/h (1 Bft) S-SW 1,02 h 459 W/m² 11,4 °C 16,9 °C 5,0 km/h (1 Bft)
04.06.2024 12:00 22,1 °C 17,3 °C 61 % 68 % 1015,0 hPa 0,0 l/m² 2,6 km/h (1 Bft) W-SW 0,98 h 358 W/m² 11,3 °C 17,3 °C 4,8 km/h (1 Bft)
04.06.2024 13:00 22,2 °C 18,4 °C 61 % 66 % 1014,3 hPa 0,0 l/m² 2,6 km/h (1 Bft) W-SW 1,00 h 480 W/m² 11,8 °C 18,4 °C 5,1 km/h (1 Bft)
04.06.2024 14:00 22,2 °C 18,8 °C 61 % 65 % 1013,8 hPa 0,0 l/m² 3,3 km/h (1 Bft) W-SW 1,00 h 426 W/m² 12,0 °C 18,7 °C 7,3 km/h (2 Bft)
04.06.2024 15:00 22,3 °C 19,8 °C 61 % 62 % 1013,3 hPa 0,0 l/m² 3,8 km/h (1 Bft) S 1,02 h 714 W/m² 12,3 °C 19,8 °C 6,9 km/h (2 Bft)
04.06.2024 16:00 22,3 °C 20,4 °C 60 % 61 % 1012,7 hPa 0,0 l/m² 3,7 km/h (1 Bft) S-SO 1,00 h 709 W/m² 12,7 °C 20,4 °C 6,0 km/h (2 Bft)
04.06.2024 17:00 22,2 °C 20,6 °C 61 % 61 % 1011,9 hPa 0,0 l/m² 2,3 km/h (1 Bft) W-SW 1,00 h 533 W/m² 12,9 °C 20,6 °C 4,5 km/h (1 Bft)
04.06.2024 18:00 22,2 °C 20,7 °C 61 % 62 % 1011,3 hPa 0,0 l/m² 4,9 km/h (1 Bft) W-SW 0,98 h 281 W/m² 13,2 °C 20,7 °C 7,8 km/h (2 Bft)
04.06.2024 19:00 22,2 °C 19,8 °C 61 % 67 % 1010,9 hPa 0,0 l/m² 3,4 km/h (1 Bft) SW 0,10 h 46 W/m² 13,5 °C 19,8 °C 5,3 km/h (1 Bft)
04.06.2024 20:00 22,1 °C 18,0 °C 62 % 77 % 1010,7 hPa 0,0 l/m² 0,0 km/h (0 Bft) SW 0,00 h 21 W/m² 13,9 °C 18,0 °C 0,0 km/h (0 Bft)
04.06.2024 21:00 22,3 °C 15,1 °C 62 % 86 % 1010,6 hPa 0,0 l/m² 0,0 km/h (0 Bft) SW 0,00 h 7 W/m² 12,8 °C 15,1 °C 0,0 km/h (0 Bft)
04.06.2024 22:00 22,3 °C 13,2 °C 63 % 91 % 1010,6 hPa 0,0 l/m² 0,0 km/h (0 Bft) SW 0,00 h 0 W/m² 11,7 °C 13,2 °C 0,0 km/h (0 Bft)
04.06.2024 23:00 22,0 °C 12,2 °C 63 % 92 % 1010,4 hPa 0,0 l/m² 0,0 km/h (0 Bft) N 0,00 h 0 W/m² 11,1 °C 12,2 °C 0,0 km/h (0 Bft)
05.06.2024 00:00 21,8 °C 12,4 °C 63 % 93 % 1010,1 hPa 0,0 l/m² 0,2 km/h (0 Bft) N 0,00 h 0 W/m² 11,2 °C 12,4 °C 0,5 km/h (0 Bft)
05.06.2024 01:00 21,7 °C 11,6 °C 63 % 92 % 1009,9 hPa 0,0 l/m² 0,0 km/h (0 Bft) N 0,00 h 0 W/m² 10,4 °C 11,6 °C 0,0 km/h (0 Bft)
05.06.2024 02:00 21,6 °C 10,7 °C 64 % 93 % 1009,5 hPa 0,0 l/m² 0,0 km/h (0 Bft) N 0,00 h 0 W/m² 9,6 °C 10,7 °C 0,0 km/h (0 Bft)
05.06.2024 03:00 21,6 °C 10,5 °C 64 % 94 % 1009,3 hPa 0,0 l/m² 0,0 km/h (0 Bft) N 0,00 h 0 W/m² 9,5 °C 10,5 °C 0,0 km/h (0 Bft)
05.06.2024 04:00 21,5 °C 10,8 °C 64 % 94 % 1009,0 hPa 0,0 l/m² 0,9 km/h (0 Bft) SW 0,00 h 6 W/m² 9,9 °C 10,8 °C 1,8 km/h (1 Bft)
05.06.2024 05:00 21,4 °C 11,7 °C 63 % 94 % 1009,0 hPa 0,0 l/m² 0,3 km/h (0 Bft) N 0,08 h 31 W/m² 10,8 °C 11,7 °C 0,9 km/h (0 Bft)
05.06.2024 06:00 21,6 °C 13,3 °C 64 % 92 % 1009,2 hPa 0,0 l/m² 1,4 km/h (1 Bft) SW 0,65 h 111 W/m² 12,1 °C 13,3 °C 2,5 km/h (1 Bft)
05.06.2024 07:00 21,6 °C 15,6 °C 64 % 88 % 1009,4 hPa 0,0 l/m² 4,9 km/h (1 Bft) S 1,00 h 180 W/m² 13,6 °C 15,2 °C 7,5 km/h (2 Bft)
05.06.2024 08:00 21,5 °C 16,2 °C 63 % 84 % 1009,9 hPa 0,0 l/m² 12,5 km/h (2 Bft) S-SW 1,00 h 86 W/m² 13,4 °C 13,5 °C 17,6 km/h (3 Bft)
05.06.2024 09:00 21,4 °C 15,9 °C 62 % 84 % 1010,5 hPa 0,0 l/m² 9,1 km/h (2 Bft) SW 0,50 h 54 W/m² 13,3 °C 14,5 °C 12,5 km/h (2 Bft)
05.06.2024 10:00 21,4 °C 16,2 °C 62 % 83 % 1010,9 hPa 0,0 l/m² 9,2 km/h (2 Bft) SW 0,60 h 100 W/m² 13,3 °C 14,7 °C 12,9 km/h (3 Bft)
05.06.2024 11:00 21,3 °C 18,2 °C 62 % 78 % 1011,1 hPa 0,0 l/m² 8,7 km/h (2 Bft) SW 1,00 h 361 W/m² 14,3 °C 17,2 °C 12,8 km/h (3 Bft)
05.06.2024 12:00 21,4 °C 19,8 °C 62 % 73 % 1011,2 hPa 0,0 l/m² 12,5 km/h (2 Bft) SW 1,00 h 505 W/m² 14,8 °C 17,7 °C 17,0 km/h (3 Bft)
05.06.2024 13:00 21,4 °C 19,4 °C 62 % 74 % 1011,4 hPa 0,0 l/m² 9,2 km/h (2 Bft) SW 1,00 h 235 W/m² 14,5 °C 18,4 °C 13,1 km/h (3 Bft)
05.06.2024 14:00 21,4 °C 19,5 °C 62 % 73 % 1011,5 hPa 0,0 l/m² 9,3 km/h (2 Bft) W-SW 1,00 h 261 W/m² 14,6 °C 18,3 °C 14,8 km/h (3 Bft)
05.06.2024 15:00 21,4 °C 19,2 °C 62 % 73 % 1011,7 hPa 0,0 l/m² 8,1 km/h (2 Bft) W-SW 1,00 h 213 W/m² 14,3 °C 18,4 °C 13,0 km/h (3 Bft)
05.06.2024 16:00 21,5 °C 19,5 °C 61 % 73 % 1011,6 hPa 0,0 l/m² 8,3 km/h (2 Bft) W-SW 0,98 h 253 W/m² 14,5 °C 18,7 °C 13,2 km/h (3 Bft)
05.06.2024 17:00 21,6 °C 18,6 °C 60 % 77 % 1011,6 hPa 0,0 l/m² 4,6 km/h (1 Bft) W-SW 0,72 h 77 W/m² 14,5 °C 18,4 °C 7,6 km/h (2 Bft)
05.06.2024 18:00 21,7 °C 16,3 °C 62 % 88 % 1012,3 hPa 0,6 l/m² 6,1 km/h (2 Bft) W-NW 0,50 h 53 W/m² 14,3 °C 15,6 °C 11,2 km/h (2 Bft)
05.06.2024 19:00 21,7 °C 15,2 °C 62 % 90 % 1012,5 hPa 0,0 l/m² 8,3 km/h (2 Bft) W-NW 0,80 h 60 W/m² 13,5 °C 14,1 °C 15,3 km/h (3 Bft)
05.06.2024 20:00 21,7 °C 14,4 °C 63 % 89 % 1012,8 hPa 0,0 l/m² 1,4 km/h (1 Bft) W 0,00 h 21 W/m² 12,6 °C 14,4 °C 4,2 km/h (1 Bft)
05.06.2024 21:00 21,6 °C 14,0 °C 62 % 92 % 1013,4 hPa 0,0 l/m² 0,3 km/h (0 Bft) W-SW 0,00 h 7 W/m² 12,7 °C 14,0 °C 0,7 km/h (0 Bft)
05.06.2024 22:00 21,6 °C 13,8 °C 63 % 93 % 1014,4 hPa 1,0 l/m² 0,2 km/h (0 Bft) W-SW 0,00 h 0 W/m² 12,8 °C 13,8 °C 0,9 km/h (0 Bft)
05.06.2024 23:00 21,5 °C 13,6 °C 63 % 94 % 1014,8 hPa 0,2 l/m² 1,3 km/h (1 Bft) W-SW 0,00 h 0 W/m² 12,7 °C 13,6 °C 2,4 km/h (1 Bft)
06.06.2024 00:00 21,4 °C 13,1 °C 63 % 94 % 1015,3 hPa 0,0 l/m² 4,0 km/h (1 Bft) SW 0,00 h 0 W/m² 12,2 °C 13,1 °C 6,8 km/h (2 Bft)
06.06.2024 01:00 21,4 °C 12,7 °C 63 % 94 % 1015,6 hPa 0,0 l/m² 1,2 km/h (1 Bft) SW 0,00 h 0 W/m² 11,8 °C 12,7 °C 1,9 km/h (1 Bft)
06.06.2024 02:00 21,3 °C 12,3 °C 63 % 94 % 1015,7 hPa 0,0 l/m² 0,0 km/h (0 Bft) SW 0,00 h 0 W/m² 11,4 °C 12,3 °C 0,2 km/h (0 Bft)
06.06.2024 03:00 21,3 °C 11,4 °C 62 % 94 % 1015,8 hPa 0,0 l/m² 2,4 km/h (1 Bft) SW 0,00 h 0 W/m² 10,5 °C 11,4 °C 4,2 km/h (1 Bft)
06.06.2024 04:00 21,2 °C 9,9 °C 62 % 94 % 1016,3 hPa 0,0 l/m² 0,0 km/h (0 Bft) SW 0,00 h 5 W/m² 9,0 °C 9,9 °C 0,0 km/h (0 Bft)
06.06.2024 05:00 21,3 °C 8,9 °C 62 % 95 % 1016,7 hPa 0,0 l/m² 0,0 km/h (0 Bft) SW 0,07 h 25 W/m² 8,0 °C 8,9 °C 0,0 km/h (0 Bft)
06.06.2024 06:00 21,3 °C 9,6 °C 63 % 95 % 1017,2 hPa 0,0 l/m² 0,2 km/h (0 Bft) SW 1,00 h 122 W/m² 8,9 °C 9,6 °C 0,7 km/h (0 Bft)
06.06.2024 07:00 21,2 °C 11,6 °C 61 % 95 % 1017,8 hPa 0,0 l/m² 0,9 km/h (0 Bft) SW 1,00 h 283 W/m² 10,8 °C 11,6 °C 2,4 km/h (1 Bft)
06.06.2024 08:00 21,2 °C 13,8 °C 61 % 84 % 1018,1 hPa 0,0 l/m² 1,8 km/h (1 Bft) W-SW 1,00 h 388 W/m² 11,1 °C 13,8 °C 3,5 km/h (1 Bft)
06.06.2024 09:00 21,2 °C 15,4 °C 61 % 78 % 1018,1 hPa 0,0 l/m² 1,5 km/h (1 Bft) O 1,00 h 610 W/m² 11,6 °C 15,4 °C 3,0 km/h (1 Bft)
06.06.2024 10:00 21,3 °C 17,3 °C 61 % 70 % 1017,8 hPa 0,0 l/m² 1,8 km/h (1 Bft) O-SO 1,00 h 766 W/m² 11,8 °C 17,3 °C 3,6 km/h (1 Bft)
06.06.2024 11:00 21,4 °C 18,7 °C 61 % 64 % 1017,4 hPa 0,0 l/m² 4,6 km/h (1 Bft) O 1,00 h 868 W/m² 11,8 °C 18,5 °C 7,1 km/h (2 Bft)
06.06.2024 12:00 21,5 °C 19,7 °C 61 % 60 % 1016,9 hPa 0,0 l/m² 4,5 km/h (1 Bft) S-SW 1,00 h 890 W/m² 11,7 °C 19,4 °C 7,8 km/h (2 Bft)
06.06.2024 13:00 21,6 °C 20,2 °C 61 % 59 % 1016,3 hPa 0,0 l/m² 4,2 km/h (1 Bft) S-SW 1,00 h 742 W/m² 11,9 °C 20,1 °C 7,0 km/h (2 Bft)
06.06.2024 14:00 21,6 °C 21,2 °C 61 % 57 % 1015,8 hPa 0,0 l/m² 5,5 km/h (2 Bft) S-SO 1,00 h 761 W/m² 12,2 °C 20,9 °C 8,7 km/h (2 Bft)
06.06.2024 15:00 21,7 °C 20,7 °C 61 % 60 % 1015,3 hPa 0,0 l/m² 4,1 km/h (1 Bft) SO 1,00 h 495 W/m² 12,6 °C 20,7 °C 6,4 km/h (2 Bft)
06.06.2024 16:00 21,6 °C 21,5 °C 61 % 58 % 1015,0 hPa 0,0 l/m² 4,0 km/h (1 Bft) S-SO 1,00 h 537 W/m² 12,8 °C 21,4 °C 6,4 km/h (2 Bft)
06.06.2024 17:00 21,6 °C 20,7 °C 59 % 63 % 1014,8 hPa 0,0 l/m² 2,8 km/h (1 Bft) SW 1,00 h 278 W/m² 13,3 °C 20,7 °C 4,6 km/h (1 Bft)
06.06.2024 18:00 21,6 °C 21,1 °C 58 % 61 % 1014,6 hPa 0,0 l/m² 0,7 km/h (0 Bft) S 1,00 h 228 W/m² 13,1 °C 21,1 °C 1,2 km/h (1 Bft)
06.06.2024 19:00 21,6 °C 20,2 °C 59 % 65 % 1014,4 hPa 0,0 l/m² 2,9 km/h (1 Bft) S 0,60 h 59 W/m² 13,4 °C 20,2 °C 4,2 km/h (1 Bft)
06.06.2024 20:00 21,5 °C 18,1 °C 59 % 74 % 1014,4 hPa 0,0 l/m² 2,9 km/h (1 Bft) S 0,00 h 17 W/m² 13,4 °C 18,0 °C 4,3 km/h (1 Bft)
06.06.2024 21:00 21,7 °C 16,3 °C 60 % 81 % 1014,8 hPa 0,0 l/m² 2,0 km/h (1 Bft) NW 0,00 h 8 W/m² 13,1 °C 16,3 °C 3,9 km/h (1 Bft)
06.06.2024 22:00 21,7 °C 15,3 °C 61 % 82 % 1015,2 hPa 0,0 l/m² 2,4 km/h (1 Bft) W-NW 0,00 h 0 W/m² 12,3 °C 15,3 °C 4,7 km/h (1 Bft)
06.06.2024 23:00 21,5 °C 14,8 °C 61 % 81 % 1015,7 hPa 0,0 l/m² 3,9 km/h (1 Bft) W 0,00 h 0 W/m² 11,6 °C 14,6 °C 8,4 km/h (2 Bft)
07.06.2024 00:00 21,4 °C 13,2 °C 61 % 83 % 1016,1 hPa 0,0 l/m² 4,4 km/h (1 Bft) NW 0,00 h 0 W/m² 10,3 °C 13,1 °C 9,1 km/h (2 Bft)
07.06.2024 01:00 21,4 °C 12,1 °C 61 % 86 % 1016,3 hPa 0,0 l/m² 2,9 km/h (1 Bft) NW 0,00 h 0 W/m² 9,9 °C 12,1 °C 5,9 km/h (2 Bft)
07.06.2024 02:00 21,4 °C 11,4 °C 61 % 88 % 1016,4 hPa 0,0 l/m² 2,7 km/h (1 Bft) NW 0,00 h 0 W/m² 9,5 °C 11,4 °C 5,1 km/h (1 Bft)
07.06.2024 03:00 21,4 °C 10,6 °C 61 % 89 % 1016,4 hPa 0,0 l/m² 1,2 km/h (1 Bft) NW 0,00 h 0 W/m² 8,9 °C 10,6 °C 2,6 km/h (1 Bft)
07.06.2024 04:00 21,4 °C 9,8 °C 61 % 92 % 1016,6 hPa 0,0 l/m² 0,7 km/h (0 Bft) W-NW 0,00 h 0 W/m² 8,5 °C 9,8 °C 2,0 km/h (1 Bft)
07.06.2024 05:00 21,4 °C 10,3 °C 61 % 93 % 1016,7 hPa 0,0 l/m² 1,6 km/h (1 Bft) W 0,00 h 18 W/m² 9,2 °C 10,3 °C 3,0 km/h (1 Bft)
07.06.2024 06:00 21,3 °C 10,8 °C 61 % 94 % 1017,1 hPa 0,0 l/m² 2,4 km/h (1 Bft) W-SW 0,78 h 81 W/m² 9,9 °C 10,8 °C 4,3 km/h (1 Bft)
07.06.2024 07:00 21,3 °C 13,3 °C 62 % 86 % 1017,2 hPa 0,0 l/m² 3,1 km/h (1 Bft) W 1,00 h 181 W/m² 11,0 °C 13,2 °C 7,0 km/h (2 Bft)
07.06.2024 08:00 21,3 °C 14,3 °C 61 % 81 % 1017,6 hPa 0,0 l/m² 3,9 km/h (1 Bft) W 1,00 h 236 W/m² 11,0 °C 14,3 °C 8,0 km/h (2 Bft)
07.06.2024 09:00 21,4 °C 16,6 °C 61 % 74 % 1018,0 hPa 0,0 l/m² 3,3 km/h (1 Bft) W 1,00 h 563 W/m² 11,9 °C 16,6 °C 7,2 km/h (2 Bft)
07.06.2024 10:00 21,5 °C 18,6 °C 61 % 65 % 1018,0 hPa 0,0 l/m² 4,9 km/h (1 Bft) W 1,00 h 711 W/m² 11,8 °C 18,4 °C 9,8 km/h (2 Bft)
07.06.2024 11:00 21,6 °C 18,3 °C 61 % 64 % 1018,3 hPa 0,0 l/m² 4,4 km/h (1 Bft) W-NW 1,00 h 297 W/m² 11,3 °C 18,2 °C 8,5 km/h (2 Bft)
07.06.2024 12:00 21,6 °C 19,3 °C 60 % 60 % 1018,5 hPa 0,0 l/m² 5,7 km/h (2 Bft) N-NW 1,00 h 647 W/m² 11,3 °C 19,1 °C 10,7 km/h (2 Bft)
07.06.2024 13:00 21,7 °C 20,1 °C 60 % 58 % 1018,4 hPa 0,0 l/m² 6,4 km/h (2 Bft) W-NW 1,00 h 924 W/m² 11,5 °C 19,6 °C 11,4 km/h (2 Bft)
07.06.2024 14:00 21,8 °C 20,2 °C 60 % 57 % 1018,1 hPa 0,0 l/m² 7,5 km/h (2 Bft) N-NW 1,00 h 681 W/m² 11,4 °C 19,4 °C 12,9 km/h (3 Bft)
07.06.2024 15:00 21,9 °C 20,4 °C 60 % 57 % 1017,5 hPa 0,0 l/m² 4,9 km/h (1 Bft) N-NW 1,00 h 684 W/m² 11,5 °C 20,2 °C 8,6 km/h (2 Bft)
07.06.2024 16:00 21,8 °C 20,4 °C 59 % 56 % 1017,1 hPa 0,0 l/m² 2,7 km/h (1 Bft) W-NW 1,00 h 415 W/m² 11,4 °C 20,3 °C 5,5 km/h (2 Bft)
07.06.2024 17:00 21,8 °C 20,1 °C 58 % 56 % 1016,8 hPa 0,0 l/m² 3,4 km/h (1 Bft) N-NW 1,00 h 392 W/m² 11,2 °C 20,1 °C 6,6 km/h (2 Bft)
07.06.2024 18:00 21,8 °C 19,6 °C 57 % 59 % 1016,6 hPa 0,0 l/m² 2,9 km/h (1 Bft) W-NW 1,00 h 172 W/m² 11,3 °C 19,6 °C 5,0 km/h (1 Bft)
07.06.2024 19:00 21,7 °C 19,0 °C 56 % 61 % 1016,4 hPa 0,0 l/m² 1,8 km/h (1 Bft) NW 0,93 h 81 W/m² 11,3 °C 19,0 °C 3,5 km/h (1 Bft)
07.06.2024 20:00 21,8 °C 17,3 °C 55 % 77 % 1016,3 hPa 0,0 l/m² 0,1 km/h (0 Bft) NW 0,05 h 36 W/m² 13,2 °C 17,3 °C 0,2 km/h (0 Bft)
07.06.2024 21:00 21,8 °C 15,9 °C 57 % 83 % 1016,5 hPa 0,0 l/m² 0,2 km/h (0 Bft) NW 0,00 h 11 W/m² 13,0 °C 15,9 °C 0,6 km/h (0 Bft)
07.06.2024 22:00 21,8 °C 13,3 °C 58 % 90 % 1016,6 hPa 0,0 l/m² 0,0 km/h (0 Bft) NW 0,00 h 0 W/m² 11,6 °C 13,3 °C 0,1 km/h (0 Bft)
07.06.2024 23:00 21,6 °C 11,5 °C 59 % 92 % 1016,5 hPa 0,0 l/m² 0,0 km/h (0 Bft) NW 0,00 h 0 W/m² 10,1 °C 11,5 °C 0,0 km/h (0 Bft)
08.06.2024 00:00 21,6 °C 10,4 °C 60 % 92 % 1016,5 hPa 0,0 l/m² 0,0 km/h (0 Bft) NW 0,00 h 0 W/m² 9,2 °C 10,4 °C 0,0 km/h (0 Bft)
08.06.2024 01:00 21,6 °C 9,8 °C 60 % 93 % 1016,3 hPa 0,0 l/m² 0,0 km/h (0 Bft) NW 0,00 h 0 W/m² 8,8 °C 9,8 °C 0,0 km/h (0 Bft)
08.06.2024 02:00 21,4 °C 10,2 °C 60 % 94 % 1015,9 hPa 0,0 l/m² 0,0 km/h (0 Bft) NW 0,00 h 0 W/m² 9,2 °C 10,2 °C 0,0 km/h (0 Bft)
08.06.2024 03:00 21,4 °C 10,3 °C 60 % 94 % 1015,6 hPa 0,0 l/m² 0,0 km/h (0 Bft) NW 0,00 h 0 W/m² 9,4 °C 10,3 °C 0,0 km/h (0 Bft)
08.06.2024 04:00 21,4 °C 9,9 °C 60 % 95 % 1015,3 hPa 0,0 l/m² 0,0 km/h (0 Bft) NW 0,00 h 0 W/m² 9,1 °C 9,9 °C 0,0 km/h (0 Bft)
08.06.2024 05:00 21,3 °C 9,4 °C 60 % 95 % 1014,6 hPa 0,0 l/m² 0,0 km/h (0 Bft) NW 0,00 h 22 W/m² 8,5 °C 9,4 °C 0,0 km/h (0 Bft)
08.06.2024 06:00 21,3 °C 10,4 °C 60 % 95 % 1014,3 hPa 0,0 l/m² 0,1 km/h (0 Bft) NW 0,98 h 112 W/m² 9,6 °C 10,4 °C 0,3 km/h (0 Bft)
08.06.2024 07:00 21,2 °C 13,0 °C 60 % 94 % 1014,0 hPa 0,0 l/m² 0,0 km/h (0 Bft) NW 1,00 h 241 W/m² 12,1 °C 13,0 °C 0,1 km/h (0 Bft)
08.06.2024 08:00 21,3 °C 16,8 °C 61 % 83 % 1013,5 hPa 0,0 l/m² 0,6 km/h (0 Bft) NW 1,00 h 361 W/m² 13,8 °C 16,8 °C 1,5 km/h (1 Bft)
08.06.2024 09:00 21,6 °C 19,5 °C 62 % 71 % 1012,8 hPa 0,0 l/m² 3,6 km/h (1 Bft) S 1,00 h 606 W/m² 14,2 °C 19,5 °C 6,1 km/h (2 Bft)
08.06.2024 10:00 21,7 °C 21,4 °C 59 % 65 % 1012,1 hPa 0,0 l/m² 5,5 km/h (2 Bft) S-SO 1,00 h 751 W/m² 14,7 °C 21,3 °C 8,6 km/h (2 Bft)
08.06.2024 11:00 22,0 °C 22,8 °C 56 % 60 % 1011,4 hPa 0,0 l/m² 8,9 km/h (2 Bft) S-SO 1,00 h 883 W/m² 14,6 °C 22,0 °C 13,1 km/h (3 Bft)
08.06.2024 12:00 22,3 °C 23,5 °C 56 % 54 % 1010,8 hPa 0,0 l/m² 10,4 km/h (2 Bft) SW 1,00 h 809 W/m² 13,7 °C 22,4 °C 16,2 km/h (3 Bft)
08.06.2024 13:00 22,2 °C 24,4 °C 58 % 52 % 1010,0 hPa 0,0 l/m² 9,7 km/h (2 Bft) SW 1,00 h 921 W/m² 13,8 °C 23,6 °C 14,1 km/h (3 Bft)
08.06.2024 14:00 22,1 °C 25,1 °C 59 % 49 % 1008,9 hPa 0,0 l/m² 13,0 km/h (3 Bft) SW 1,00 h 900 W/m² 13,5 °C 23,8 °C 18,0 km/h (3 Bft)
08.06.2024 15:00 22,2 °C 25,6 °C 60 % 46 % 1008,2 hPa 0,0 l/m² 12,3 km/h (2 Bft) SW 1,00 h 813 W/m² 13,2 °C 24,4 °C 17,4 km/h (3 Bft)
08.06.2024 16:00 22,3 °C 25,4 °C 57 % 47 % 1007,3 hPa 0,0 l/m² 10,5 km/h (2 Bft) SW 1,00 h 604 W/m² 13,3 °C 24,5 °C 15,0 km/h (3 Bft)
08.06.2024 17:00 22,2 °C 25,8 °C 54 % 44 % 1006,6 hPa 0,0 l/m² 12,3 km/h (2 Bft) W-SW 1,00 h 549 W/m² 12,6 °C 24,7 °C 17,6 km/h (3 Bft)
08.06.2024 18:00 22,1 °C 25,2 °C 55 % 43 % 1006,3 hPa 0,0 l/m² 12,5 km/h (2 Bft) W-SW 1,00 h 321 W/m² 11,6 °C 24,0 °C 18,0 km/h (3 Bft)
08.06.2024 19:00 22,0 °C 23,9 °C 56 % 50 % 1006,2 hPa 0,0 l/m² 8,0 km/h (2 Bft) W-SW 0,68 h 57 W/m² 13,0 °C 23,4 °C 12,7 km/h (3 Bft)
08.06.2024 20:00 22,0 °C 20,6 °C 57 % 64 % 1006,4 hPa 0,0 l/m² 2,9 km/h (1 Bft) W 0,00 h 34 W/m² 13,4 °C 20,6 °C 5,6 km/h (2 Bft)
08.06.2024 21:00 21,9 °C 18,6 °C 56 % 65 % 1006,9 hPa 0,0 l/m² 5,8 km/h (2 Bft) W-NW 0,00 h 13 W/m² 12,0 °C 18,4 °C 10,5 km/h (2 Bft)
08.06.2024 22:00 22,1 °C 17,6 °C 57 % 66 % 1007,9 hPa 0,0 l/m² 6,9 km/h (2 Bft) W-NW 0,00 h 0 W/m² 11,2 °C 17,0 °C 13,5 km/h (3 Bft)
08.06.2024 23:00 22,0 °C 16,1 °C 58 % 69 % 1008,3 hPa 0,0 l/m² 3,7 km/h (1 Bft) W 0,00 h 0 W/m² 10,3 °C 16,1 °C 8,6 km/h (2 Bft)
09.06.2024 00:00 21,9 °C 15,2 °C 59 % 72 % 1009,2 hPa 0,0 l/m² 6,0 km/h (2 Bft) NW 0,00 h 0 W/m² 10,1 °C 14,6 °C 12,8 km/h (3 Bft)
09.06.2024 01:00 21,8 °C 14,1 °C 59 % 80 % 1009,9 hPa 0,0 l/m² 3,1 km/h (1 Bft) W 0,00 h 0 W/m² 10,7 °C 14,1 °C 8,2 km/h (2 Bft)
09.06.2024 02:00 21,8 °C 12,8 °C 59 % 87 % 1010,3 hPa 0,0 l/m² 0,9 km/h (0 Bft) W 0,00 h 0 W/m² 10,6 °C 12,8 °C 2,3 km/h (1 Bft)
09.06.2024 03:00 21,8 °C 12,4 °C 59 % 87 % 1010,2 hPa 0,0 l/m² 3,1 km/h (1 Bft) W-NW 0,00 h 0 W/m² 10,3 °C 12,4 °C 6,3 km/h (2 Bft)
09.06.2024 04:00 21,7 °C 11,1 °C 59 % 91 % 1010,3 hPa 0,0 l/m² 0,0 km/h (0 Bft) W-NW 0,00 h 0 W/m² 9,7 °C 11,1 °C 0,0 km/h (0 Bft)
09.06.2024 05:00 21,7 °C 11,6 °C 59 % 93 % 1010,5 hPa 0,0 l/m² 0,0 km/h (0 Bft) W-NW 0,00 h 7 W/m² 10,5 °C 11,6 °C 0,2 km/h (0 Bft)
09.06.2024 06:00 21,7 °C 12,2 °C 59 % 91 % 1010,4 hPa 0,0 l/m² 0,1 km/h (0 Bft) W 0,30 h 46 W/m² 10,8 °C 12,2 °C 0,6 km/h (0 Bft)
09.06.2024 07:00 21,7 °C 13,3 °C 59 % 85 % 1010,3 hPa 0,0 l/m² 1,4 km/h (1 Bft) W 1,00 h 129 W/m² 10,8 °C 13,3 °C 3,6 km/h (1 Bft)
09.06.2024 08:00 21,7 °C 14,6 °C 61 % 78 % 1010,2 hPa 0,0 l/m² 2,4 km/h (1 Bft) W 1,00 h 311 W/m² 10,7 °C 14,6 °C 4,7 km/h (1 Bft)
09.06.2024 09:00 21,9 °C 14,9 °C 61 % 77 % 1010,1 hPa 0,0 l/m² 1,5 km/h (1 Bft) W 1,00 h 265 W/m² 10,9 °C 14,9 °C 3,2 km/h (1 Bft)
09.06.2024 10:00 22,0 °C 16,9 °C 59 % 72 % 1009,7 hPa 0,0 l/m² 3,3 km/h (1 Bft) S-SO 1,00 h 763 W/m² 11,8 °C 16,8 °C 6,3 km/h (2 Bft)
09.06.2024 11:00 22,1 °C 17,8 °C 56 % 70 % 1009,3 hPa 0,0 l/m² 5,1 km/h (1 Bft) NW 1,00 h 587 W/m² 12,2 °C 17,6 °C 9,0 km/h (2 Bft)
09.06.2024 12:00 22,1 °C 18,7 °C 56 % 65 % 1008,8 hPa 0,0 l/m² 4,2 km/h (1 Bft) NW 1,00 h 694 W/m² 11,9 °C 18,4 °C 6,7 km/h (2 Bft)
09.06.2024 13:00 22,2 °C 20,1 °C 57 % 53 % 1008,4 hPa 0,0 l/m² 11,4 km/h (2 Bft) W-SW 1,00 h 871 W/m² 10,3 °C 18,4 °C 17,4 km/h (3 Bft)
09.06.2024 14:00 22,1 °C 21,3 °C 56 % 46 % 1007,9 hPa 0,0 l/m² 11,3 km/h (2 Bft) SW 1,00 h 931 W/m² 9,3 °C 19,7 °C 17,6 km/h (3 Bft)
09.06.2024 15:00 22,3 °C 21,4 °C 53 % 41 % 1007,3 hPa 0,0 l/m² 10,8 km/h (2 Bft) W-SW 1,00 h 825 W/m² 7,7 °C 20,1 °C 16,6 km/h (3 Bft)
09.06.2024 16:00 22,2 °C 21,8 °C 51 % 42 % 1006,8 hPa 0,0 l/m² 10,9 km/h (2 Bft) SW 1,00 h 701 W/m² 8,4 °C 20,4 °C 17,2 km/h (3 Bft)
09.06.2024 17:00 22,0 °C 21,6 °C 48 % 40 % 1006,5 hPa 0,0 l/m² 10,6 km/h (2 Bft) W-SW 1,00 h 548 W/m² 7,5 °C 20,3 °C 16,3 km/h (3 Bft)
09.06.2024 18:00 21,9 °C 21,2 °C 46 % 41 % 1006,2 hPa 0,0 l/m² 9,5 km/h (2 Bft) W 0,85 h 309 W/m² 7,6 °C 20,2 °C 16,1 km/h (3 Bft)
09.06.2024 19:00 22,0 °C 20,3 °C 48 % 46 % 1005,9 hPa 0,0 l/m² 5,1 km/h (1 Bft) W 0,02 h 34 W/m² 8,3 °C 20,2 °C 9,5 km/h (2 Bft)
09.06.2024 20:00 22,2 °C 18,1 °C 51 % 60 % 1006,2 hPa 0,0 l/m² 2,9 km/h (1 Bft) NW 0,00 h 19 W/m² 10,3 °C 18,1 °C 4,8 km/h (1 Bft)
09.06.2024 21:00 22,4 °C 14,8 °C 54 % 73 % 1006,5 hPa 0,0 l/m² 2,7 km/h (1 Bft) NW 0,00 h 8 W/m² 9,9 °C 14,8 °C 4,4 km/h (1 Bft)
09.06.2024 22:00 22,4 °C 11,9 °C 54 % 82 % 1006,9 hPa 0,0 l/m² 0,2 km/h (0 Bft) W-NW 0,00 h 0 W/m² 9,0 °C 11,9 °C 0,8 km/h (0 Bft)
09.06.2024 23:00 22,2 °C 10,3 °C 55 % 87 % 1006,8 hPa 0,0 l/m² 0,0 km/h (0 Bft) W-NW 0,00 h 0 W/m² 8,2 °C 10,3 °C 0,2 km/h (0 Bft)
Min-Datum _ 06.06.24 06.06.24 09.06.24 09.06.24 09.06.24 - 09.06.24 - - - 09.06.24 06.06.24 09.06.24
_ Min-Zeit 09:00 05:19 18:11 15:36 19:35 - 23:00 - - - 15:41 05:19 23:00
Minimum _ 21,1 °C 8,6 °C 44 % 37 % 1005,7 hPa - 0,0 km/h (0 Bft) - - - 6,0 °C 8,6 °C 0,0 km/h (0 Bft)
Max-Datum _ 03.06.24 08.06.24 03.06.24 08.06.24 03.06.24 05.06.24 08.06.24 - 05.06.24 03.06.24 08.06.24 08.06.24 09.06.24
_ Max-Zeit 15:00 17:03 01:00 07:02 01:43 22:08 14:28 - 16:08 13:02 11:14 16:57 14:13
Maximum _ 22,7 °C 26,1 °C 66 % 96 % 1018,7 hPa 1,0 l/m² 22,7 km/h
SW (4 Bft)
- 0,12 h 1190 W/m² 15,7 °C 25,8 °C 27,4 km/h
W-SW (5 Bft)
Durchschnitt _ 21,8 °C 15,9 °C 60 % 76 % 1013,7 hPa #2,0 l/m² 4,0 km/h (1 Bft) SW #91:02 h 246 W/m² 11,3 °C 15,6 °C 7,0 km/h (2 Bft)
© 2009 Mathias Hoßbach